Wasilla, Alaska
Current Conditions -  °F | °C
As of 7:16 AM on Monday 24 Nov 2014 (Local Time) from PAWS Reporting Station
Broken Clouds Broken Clouds  
Wind Chill: 21°   Ceiling: 9000
Heat Index: 21°   Visibility: 10mi
Dew Point: 12°   Wind: 3mph
Humidity: 68%   Direction: 250°WSW
Pressure: 29.63"   Gusts: NA
Location:  61.58°N, 149.45°W
Report Text: PAWS 241616Z AUTO 25003KT 10SM BKN090 M06/M11 A2963 RMK AO1
Loading
Personal Weather Stations






























Interactive Weather Map New forecast layout! Learn more

10-Day Weather Forecast

Advertisements
Track Severe Weather on mobile